"WATCHING THE WEATHER TO PROTECT LIFE AND PROPERTY"


THERE ARE CURRENTLY NO WATCHES NOR WARNINGS


Aviation
Satellite (InfraRed)


KFLL 240053Z 23011G20KT 10SM FEW042 22/16 A2988 RMK AO2 SLP119 T02220156 $
KMCO 240053Z 24012KT 7SM -RA SCT023 SCT028 OVC038 19/18 A2981 RMK AO2 PK WND 23031/0019 RAB20 SLP095 P0002 T01890178
KMIA 240053Z 22008G18KT 10SM FEW034 22/16 A2991 RMK AO2 SLP127 T02170156
KTPA 240053Z 23014KT 10SM FEW030 SCT041 BKN090 BKN260 19/18 A2982 RMK AO2 PK WND 21027/0008 SLP098 T01940183
MDPP 240100Z 00000KT 9999 FEW018 23/21 Q1015
MDSD 240100Z 13008KT 9999 FEW018 24/19 Q1015
MKJS 240100Z 12005KT 9999 SCT022 25/19 Q1014
MTPP 240100Z VRB02KT 8000 FEW024 26/20 Q1014 A2995
MUHA 240050Z 22002KT 9000 FEW040 18/14 Q1015
MYNN 240100Z 24009KT 9999 FEW025 SCT060 22/14 A2995
TAPA 240100Z 07008KT 020V100 9999 SCT024 25/20 Q1016 NOSIG
TFFF 240100Z AUTO 06004KT 030V090 9999 FEW028/// BKN060/// BKN070/// ///CB 26/22 Q1015 BECMG SCT030
TFFR 240100Z AUTO 10004KT 050V120 5000 -RA BR SCT019 SCT025 BKN038 24/23 Q1016 TEMPO SHRA SCT018TCU
TIST 240053Z 08006KT 10SM FEW030 24/17 A3002 RMK AO2 SLP166 T02390172 PNO $
TISX 240053Z 02004KT 10SM CLR 23/18 A3003 RMK AO2 SLP167 T02330183
TJSJ 240056Z 11004KT 10SM CLR 24/16 A3002 RMK AO2 SLP165 T02440161 $
TKPK 240100Z 03010KT 9999 FEW018 25/20 Q1016
TNCA 240100Z 08013KT 9999 SCT020 27/22 Q1013 NOSIG
TNCB 240055Z 08009KT 9999 FEW016 26/23 Q1013
TNCC 240100Z 10011KT 9999 FEW018 27/23 Q1013 NOSIG
TNCE 240055Z AUTO 08013KT //// // ///////// 25/21 Q1016 RE//
TNCM 240100Z 06007KT 9999 FEW018 25/21 Q1018 NOSIG
TQPF 232300Z 06005KT 9999 FEW019 24/20 Q1015
TUPJ 240100Z 08005KT 19SM FEW028 24/17 A3003 RMK Q1016 VIS16KM